createdAt,value
2022-09-27T00:00:44.393Z,38.00
2022-09-27T00:03:15.524Z,43.25
2022-09-27T00:05:45.823Z,34.00
2022-09-27T00:08:16.498Z,41.00
2022-09-27T00:10:47.315Z,40.75
2022-09-27T00:13:17.867Z,35.50
2022-09-27T00:15:47.869Z,37.00
2022-09-27T00:18:18.280Z,39.00
2022-09-27T00:20:48.845Z,36.00
2022-09-27T00:23:18.956Z,37.00
2022-09-27T00:26:02.214Z,41.25
2022-09-27T00:28:32.659Z,44.50
2022-09-27T00:31:03.953Z,44.75
2022-09-27T00:33:34.518Z,48.75
2022-09-27T00:36:08.585Z,49.75
2022-09-27T00:38:38.866Z,46.00
2022-09-27T00:41:09.687Z,48.00
2022-09-27T00:43:50.732Z,47.75
2022-09-27T00:46:38.634Z,45.00
2022-09-27T00:49:25.773Z,45.25
2022-09-27T00:52:04.238Z,46.50
2022-09-27T00:54:38.622Z,45.25
2022-09-27T00:57:10.471Z,42.33
2022-09-27T00:59:43.604Z,45.75
2022-09-27T01:02:15.323Z,45.25
2022-09-27T01:07:17.235Z,48.00
2022-09-27T01:09:47.870Z,45.00
2022-09-27T01:12:56.808Z,45.50
2022-09-27T01:15:53.342Z,47.00
2022-09-27T01:19:09.396Z,49.75
2022-09-27T01:22:05.837Z,50.00
2022-09-27T01:24:59.544Z,49.67
2022-09-27T01:27:35.821Z,49.50
2022-09-27T01:30:27.532Z,49.75
2022-09-27T01:33:20.449Z,53.50
2022-09-27T01:36:24.981Z,50.50
2022-09-27T01:39:35.029Z,50.00
2022-09-27T01:42:46.596Z,50.00
2022-09-27T01:45:45.692Z,53.00
2022-09-27T01:48:30.571Z,60.25
2022-09-27T01:51:27.371Z,59.25
2022-09-27T01:54:04.413Z,58.50
2022-09-27T01:56:43.079Z,59.00
2022-09-27T01:59:58.423Z,57.75
2022-09-27T02:03:23.685Z,59.00
2022-09-27T02:06:20.238Z,64.75
2022-09-27T02:09:08.462Z,67.33
2022-09-27T02:12:08.756Z,64.50
2022-09-27T02:14:43.601Z,63.33
2022-09-27T02:17:35.244Z,55.25
2022-09-27T02:20:21.283Z,59.00
2022-09-27T02:23:20.281Z,65.75
2022-09-27T02:26:01.988Z,61.75
2022-09-27T02:28:58.411Z,65.00
2022-09-27T02:31:35.046Z,74.75
2022-09-27T02:34:15.158Z,59.67
2022-09-27T02:36:46.163Z,66.33
2022-09-27T02:39:17.175Z,63.75
2022-09-27T02:41:47.701Z,55.25
2022-09-27T02:44:20.354Z,60.25
2022-09-27T02:47:20.701Z,61.00
2022-09-27T02:50:34.597Z,61.75
2022-09-27T02:53:38.037Z,64.50
2022-09-27T02:56:33.177Z,67.00
2022-09-27T02:59:38.170Z,57.00
2022-09-27T03:02:39.755Z,60.75
2022-09-27T03:05:59.534Z,63.25
2022-09-27T03:08:30.330Z,61.33
2022-09-27T03:11:00.864Z,63.00
2022-09-27T03:13:31.823Z,59.75
2022-09-27T03:16:07.645Z,64.25
2022-09-27T03:18:56.356Z,55.00
2022-09-27T03:21:45.006Z,56.50
2022-09-27T03:24:15.415Z,61.00
2022-09-27T03:26:45.511Z,51.00
2022-09-27T03:29:16.324Z,56.33
2022-09-27T03:31:51.621Z,52.00
2022-09-27T03:34:46.115Z,60.50
2022-09-27T03:37:17.622Z,55.00
2022-09-27T03:39:48.822Z,54.33
2022-09-27T03:42:19.634Z,49.50
2022-09-27T03:44:53.936Z,54.50
2022-09-27T03:47:24.689Z,54.00
2022-09-27T03:49:54.996Z,51.00
2022-09-27T03:52:25.707Z,54.67
2022-09-27T03:55:01.129Z,54.25
2022-09-27T03:57:33.878Z,60.50
2022-09-27T04:00:06.285Z,58.00
2022-09-27T04:02:44.233Z,51.50
2022-09-27T04:08:04.324Z,52.33
2022-09-27T04:10:35.776Z,57.00
2022-09-27T04:13:08.573Z,55.75
2022-09-27T04:15:52.396Z,53.25
2022-09-27T04:18:35.831Z,57.00
2022-09-27T04:21:41.036Z,58.00
2022-09-27T04:24:13.340Z,53.75
2022-09-27T04:26:53.203Z,63.50
2022-09-27T04:31:58.315Z,52.50
2022-09-27T04:35:05.481Z,60.25
2022-09-27T04:37:36.053Z,58.75
2022-09-27T04:40:09.836Z,60.25
2022-09-27T04:42:40.859Z,59.25
2022-09-27T04:45:11.504Z,57.00
2022-09-27T04:50:17.456Z,50.25
2022-09-27T04:53:04.834Z,63.33
2022-09-27T04:55:35.593Z,60.25
2022-09-27T04:58:06.658Z,60.75
2022-09-27T05:00:37.704Z,65.00
2022-09-27T05:03:28.364Z,63.75
2022-09-27T05:06:02.521Z,61.75
2022-09-27T05:08:38.487Z,55.00
2022-09-27T05:11:31.694Z,57.25
2022-09-27T05:14:38.775Z,57.33
2022-09-27T05:17:27.214Z,53.75
2022-09-27T05:20:17.654Z,52.00
2022-09-27T05:23:04.626Z,55.00
2022-09-27T05:25:35.585Z,52.00
2022-09-27T05:28:07.536Z,46.75
2022-09-27T05:30:38.480Z,53.00
2022-09-27T05:33:14.310Z,50.67
2022-09-27T05:35:58.664Z,56.00
2022-09-27T05:38:32.849Z,53.00
2022-09-27T05:41:05.691Z,55.50
2022-09-27T05:43:38.534Z,52.67
2022-09-27T05:48:41.360Z,50.00
2022-09-27T05:51:12.581Z,50.00
2022-09-27T05:53:44.209Z,51.50
2022-09-27T05:56:26.283Z,51.75
2022-09-27T05:59:22.652Z,48.75
2022-09-27T06:02:13.473Z,50.25
2022-09-27T06:05:05.169Z,50.00
2022-09-27T06:07:54.131Z,52.50
2022-09-27T06:10:33.819Z,54.00
2022-09-27T06:13:13.482Z,53.75
2022-09-27T06:15:48.529Z,55.50
2022-09-27T06:18:19.478Z,54.25
2022-09-27T06:20:52.437Z,48.75
2022-09-27T06:23:25.164Z,51.50
2022-09-27T06:25:57.065Z,53.25
2022-09-27T06:28:53.050Z,55.67
2022-09-27T06:31:23.565Z,55.75
2022-09-27T06:34:03.584Z,49.25
2022-09-27T06:36:34.619Z,49.75
2022-09-27T06:39:06.120Z,51.75
2022-09-27T06:41:45.362Z,54.67
2022-09-27T06:44:28.588Z,51.25
2022-09-27T06:47:28.654Z,54.75
2022-09-27T06:55:24.687Z,58.50
2022-09-27T06:58:21.058Z,53.25
2022-09-27T07:01:11.622Z,55.75
2022-09-27T07:04:14.934Z,56.25
2022-09-27T07:07:07.469Z,57.50
2022-09-27T07:09:41.487Z,53.33
2022-09-27T07:12:14.758Z,51.67
2022-09-27T07:14:45.681Z,53.25
2022-09-27T07:17:18.751Z,53.25
2022-09-27T07:19:51.311Z,57.50
2022-09-27T07:22:21.806Z,52.50
2022-09-27T07:24:57.928Z,46.33
2022-09-27T07:27:28.707Z,51.25
2022-09-27T07:30:00.404Z,52.50
2022-09-27T07:32:32.222Z,46.50
2022-09-27T07:35:02.958Z,50.25
2022-09-27T07:37:38.740Z,55.25
2022-09-27T07:40:11.221Z,52.25
2022-09-27T07:42:45.257Z,42.00
2022-09-27T07:45:15.844Z,46.33
2022-09-27T07:48:10.951Z,53.00
2022-09-27T07:51:09.771Z,50.00
2022-09-27T07:53:46.391Z,49.75
2022-09-27T07:56:36.999Z,50.00
2022-09-27T07:59:09.501Z,55.33
2022-09-27T08:01:41.006Z,49.00
2022-09-27T08:04:11.171Z,49.00
2022-09-27T08:06:41.446Z,50.00
2022-09-27T08:09:11.775Z,50.00
2022-09-27T08:11:47.904Z,50.00
2022-09-27T08:14:20.021Z,49.00
2022-09-27T08:16:53.452Z,48.25
2022-09-27T08:19:46.643Z,47.50
2022-09-27T08:25:25.787Z,48.00
2022-09-27T08:28:07.972Z,48.50
2022-09-27T08:30:48.068Z,50.00
2022-09-27T08:33:18.728Z,50.00
2022-09-27T08:35:49.827Z,50.00
2022-09-27T08:38:20.331Z,48.75
2022-09-27T08:41:03.298Z,50.00
2022-09-27T08:46:39.904Z,49.50
2022-09-27T08:52:08.762Z,47.75
2022-09-27T08:54:41.104Z,48.00
2022-09-27T08:57:14.776Z,49.33
2022-09-27T09:00:11.452Z,47.50
2022-09-27T09:02:44.286Z,48.50
2022-09-27T09:05:36.571Z,48.33
2022-09-27T09:09:02.082Z,49.67
2022-09-27T09:12:01.731Z,48.25
2022-09-27T09:14:58.581Z,43.25
2022-09-27T09:17:45.684Z,47.00
2022-09-27T09:20:39.851Z,48.50
2022-09-27T09:23:31.848Z,48.67
2022-09-27T09:26:20.146Z,45.67
2022-09-27T09:28:59.243Z,44.67
2022-09-27T09:31:50.220Z,47.50
2022-09-27T09:34:27.762Z,43.25
2022-09-27T09:37:25.996Z,35.00
2022-09-27T09:40:12.136Z,46.67
2022-09-27T09:43:07.217Z,34.00
2022-09-27T09:46:13.054Z,44.50
2022-09-27T09:48:57.519Z,44.25
2022-09-27T09:51:36.731Z,47.00
2022-09-27T09:56:49.020Z,47.25
2022-09-27T09:59:36.937Z,48.00
2022-09-27T10:02:28.774Z,50.00
2022-09-27T10:05:08.087Z,45.75
2022-09-27T10:07:41.155Z,50.00
2022-09-27T10:10:17.510Z,48.67
2022-09-27T10:13:06.760Z,50.00
2022-09-27T10:15:41.302Z,49.50
2022-09-27T10:18:20.103Z,46.75
2022-09-27T10:21:04.128Z,45.75
2022-09-27T10:23:35.569Z,45.25
2022-09-27T10:26:22.914Z,48.00
2022-09-27T10:28:53.516Z,45.50
2022-09-27T10:31:40.160Z,47.25
2022-09-27T10:34:21.301Z,46.75
2022-09-27T10:37:21.859Z,40.75
2022-09-27T10:40:02.199Z,45.00
2022-09-27T10:42:39.853Z,43.50
2022-09-27T10:45:33.116Z,44.75
2022-09-27T10:48:26.705Z,43.25
2022-09-27T10:51:06.843Z,45.25
2022-09-27T10:53:52.013Z,42.00
2022-09-27T10:56:34.406Z,44.75
2022-09-27T10:59:07.223Z,43.00
2022-09-27T11:01:47.979Z,44.00
2022-09-27T11:04:40.680Z,41.75
2022-09-27T11:07:19.776Z,38.67
2022-09-27T11:10:06.983Z,40.25
2022-09-27T11:12:41.930Z,42.50
2022-09-27T11:15:25.659Z,37.33
2022-09-27T11:20:58.201Z,42.50
2022-09-27T11:23:56.138Z,37.75
2022-09-27T11:26:38.563Z,40.33
2022-09-27T11:32:34.060Z,41.00
2022-09-27T11:38:11.068Z,32.75
2022-09-27T11:41:05.422Z,42.00
2022-09-27T11:43:48.039Z,43.75
2022-09-27T11:46:52.034Z,39.25
2022-09-27T11:49:40.864Z,40.75
2022-09-27T11:52:35.733Z,41.25
2022-09-27T11:55:44.611Z,41.25
2022-09-27T11:58:27.905Z,43.25
2022-09-27T12:04:19.294Z,39.33
2022-09-27T12:06:58.411Z,42.00
2022-09-27T12:09:38.718Z,40.75
2022-09-27T12:12:18.713Z,39.50
2022-09-27T12:14:53.325Z,41.50
2022-09-27T12:17:38.882Z,38.50
2022-09-27T12:20:25.970Z,42.00
2022-09-27T12:23:19.168Z,42.00
2022-09-27T12:26:38.949Z,39.50
2022-09-27T12:29:15.399Z,40.50
2022-09-27T12:31:59.876Z,37.50
2022-09-27T12:34:38.519Z,39.75
2022-09-27T12:37:21.440Z,45.33
2022-09-27T12:40:04.961Z,40.25
2022-09-27T12:42:50.531Z,40.25
2022-09-27T12:46:00.720Z,41.75
2022-09-27T12:48:58.987Z,43.75
2022-09-27T12:51:38.418Z,42.25
2022-09-27T12:54:33.679Z,43.25
2022-09-27T12:57:13.580Z,44.67
2022-09-27T12:59:52.056Z,43.50
2022-09-27T13:03:04.007Z,39.00
2022-09-27T13:08:30.104Z,38.33
2022-09-27T13:11:31.121Z,41.50
2022-09-27T13:14:04.281Z,46.25
2022-09-27T13:16:45.539Z,42.25
2022-09-27T13:19:37.931Z,44.50
2022-09-27T13:22:31.790Z,42.25
2022-09-27T13:25:49.624Z,43.50
2022-09-27T13:29:05.159Z,41.00
2022-09-27T13:32:04.244Z,37.00
2022-09-27T13:38:01.158Z,43.00
2022-09-27T13:40:45.253Z,43.00
2022-09-27T13:43:50.696Z,39.75
2022-09-27T13:46:38.688Z,40.75
2022-09-27T13:49:34.993Z,42.25
2022-09-27T13:52:38.343Z,38.50
2022-09-27T13:55:46.866Z,37.67
2022-09-27T13:58:53.736Z,39.00
2022-09-27T14:02:15.618Z,38.67
2022-09-27T14:04:53.118Z,38.00
2022-09-27T14:07:54.745Z,35.50
2022-09-27T14:10:26.719Z,38.00
2022-09-27T14:13:00.673Z,40.25
2022-09-27T14:15:34.309Z,39.75
2022-09-27T14:18:15.852Z,40.50
2022-09-27T14:20:50.274Z,39.25
2022-09-27T14:23:40.649Z,39.75
2022-09-27T14:26:31.626Z,39.75
2022-09-27T14:29:04.009Z,43.50
2022-09-27T14:31:38.169Z,38.50
2022-09-27T14:34:17.239Z,39.50
2022-09-27T14:37:09.598Z,39.00
2022-09-27T14:40:01.609Z,41.50
2022-09-27T14:42:39.796Z,40.25
2022-09-27T14:45:37.638Z,39.50
2022-09-27T14:48:38.609Z,39.25
2022-09-27T14:51:14.828Z,41.00
2022-09-27T14:53:52.015Z,47.25
2022-09-27T14:56:30.900Z,45.00
2022-09-27T14:59:12.656Z,46.00
2022-09-27T15:01:54.427Z,44.75
2022-09-27T15:04:26.423Z,37.50
2022-09-27T15:09:32.822Z,38.75
2022-09-27T15:12:06.834Z,40.75
2022-09-27T15:14:42.654Z,37.25
2022-09-27T15:17:22.176Z,34.75
2022-09-27T15:20:22.426Z,38.00
2022-09-27T15:22:53.910Z,38.00
2022-09-27T15:28:00.624Z,42.00
2022-09-27T15:30:38.658Z,41.33
2022-09-27T15:33:22.217Z,44.33
2022-09-27T15:35:58.881Z,40.00
2022-09-27T15:38:50.698Z,38.00
2022-09-27T15:41:22.929Z,39.75
2022-09-27T15:43:54.932Z,40.00
2022-09-27T15:46:36.221Z,38.00
2022-09-27T15:49:34.955Z,41.25
2022-09-27T15:52:10.887Z,41.75
2022-09-27T15:54:41.084Z,42.25
2022-09-27T15:57:14.440Z,43.50
2022-09-27T15:59:44.771Z,43.00
2022-09-27T16:02:20.810Z,35.75
2022-09-27T16:07:24.513Z,35.33
2022-09-27T16:09:56.939Z,40.00
2022-09-27T16:12:31.736Z,43.33
2022-09-27T16:15:02.180Z,39.00
2022-09-27T16:17:32.278Z,38.33
2022-09-27T16:20:02.602Z,36.50
2022-09-27T16:22:33.658Z,41.00
2022-09-27T16:25:03.710Z,43.00
2022-09-27T16:27:34.152Z,41.00
2022-09-27T16:30:04.946Z,41.25
2022-09-27T16:32:35.887Z,41.00
2022-09-27T16:35:06.070Z,41.00
2022-09-27T16:37:37.304Z,41.25
2022-09-27T16:40:12.399Z,40.75
2022-09-27T16:42:43.721Z,42.50
2022-09-27T16:45:18.962Z,45.00
2022-09-27T16:47:50.309Z,41.25
2022-09-27T16:50:38.712Z,41.33
2022-09-27T16:53:10.072Z,41.50
2022-09-27T16:55:40.546Z,42.50
2022-09-27T16:58:11.499Z,41.33
2022-09-27T17:00:43.301Z,44.50
2022-09-27T17:03:13.881Z,45.33
2022-09-27T17:05:43.935Z,44.67
2022-09-27T17:08:14.178Z,42.50
2022-09-27T17:10:49.226Z,41.50
2022-09-27T17:13:19.599Z,41.50
2022-09-27T17:18:20.201Z,43.00
2022-09-27T17:20:50.340Z,45.33
2022-09-27T17:23:20.452Z,45.00
2022-09-27T17:25:50.719Z,43.67
2022-09-27T17:28:20.778Z,42.00
2022-09-27T17:30:51.785Z,44.33
2022-09-27T17:33:23.257Z,44.75
2022-09-27T17:36:04.351Z,45.00
2022-09-27T17:38:34.467Z,43.00
2022-09-27T17:43:39.015Z,41.00
2022-09-27T17:46:15.109Z,39.00
2022-09-27T17:49:03.757Z,39.25
2022-09-27T17:51:36.592Z,42.00
2022-09-27T17:54:11.737Z,38.50
2022-09-27T17:56:44.102Z,42.25
2022-09-27T17:59:19.261Z,42.50
2022-09-27T18:01:51.011Z,43.25
2022-09-27T18:04:21.905Z,42.25
2022-09-27T18:06:52.045Z,41.00
2022-09-27T18:09:22.744Z,41.75
2022-09-27T18:11:52.779Z,41.25
2022-09-27T18:14:25.340Z,44.50
2022-09-27T18:16:58.870Z,45.75
2022-09-27T18:19:29.392Z,44.00
2022-09-27T18:22:02.043Z,46.25
2022-09-27T18:24:33.381Z,44.00
2022-09-27T18:27:05.439Z,37.00
2022-09-27T18:29:35.852Z,34.25
2022-09-27T18:32:09.017Z,40.25
2022-09-27T18:34:44.295Z,47.25
2022-09-27T18:37:14.785Z,38.33
2022-09-27T18:39:44.870Z,39.25
2022-09-27T18:42:14.931Z,41.25
2022-09-27T18:47:15.889Z,39.50
2022-09-27T18:49:46.373Z,40.00
2022-09-27T18:52:16.406Z,37.00
2022-09-27T18:54:46.559Z,40.00
2022-09-27T18:57:16.670Z,42.00
2022-09-27T18:59:50.699Z,39.50
2022-09-27T19:02:21.472Z,43.25
2022-09-27T19:04:51.802Z,33.25
2022-09-27T19:07:21.920Z,31.75
2022-09-27T19:09:53.414Z,37.75
2022-09-27T19:12:23.646Z,42.25
2022-09-27T19:14:53.814Z,29.33
2022-09-27T19:17:23.911Z,34.67
2022-09-27T19:19:54.748Z,38.00
2022-09-27T19:22:24.910Z,38.75
2022-09-27T19:24:55.179Z,39.75
2022-09-27T19:27:26.080Z,35.75
2022-09-27T19:30:00.450Z,35.75
2022-09-27T19:32:31.283Z,38.50
2022-09-27T19:35:01.611Z,28.50
2022-09-27T19:37:31.986Z,36.75
2022-09-27T19:40:04.366Z,37.00
2022-09-27T19:42:34.893Z,38.50
2022-09-27T19:45:10.646Z,35.25
2022-09-27T19:47:42.114Z,36.00
2022-09-27T19:50:12.896Z,30.75
2022-09-27T19:52:44.476Z,39.25
2022-09-27T19:55:15.802Z,38.00
2022-09-27T19:57:46.602Z,31.25
2022-09-27T20:00:16.929Z,30.67
2022-09-27T20:02:47.631Z,43.25
2022-09-27T20:05:18.778Z,38.75
2022-09-27T20:07:49.753Z,37.25
2022-09-27T20:10:20.052Z,34.75
2022-09-27T20:12:52.995Z,31.25
2022-09-27T20:15:23.888Z,40.50
2022-09-27T20:17:54.203Z,37.50
2022-09-27T20:20:25.341Z,43.25
2022-09-27T20:22:55.446Z,32.00
2022-09-27T20:25:27.303Z,33.75
2022-09-27T20:27:57.556Z,36.50
2022-09-27T20:30:27.678Z,40.00
2022-09-27T20:33:16.305Z,40.75
2022-09-27T20:35:55.330Z,34.00
2022-09-27T20:38:25.987Z,31.00
2022-09-27T20:40:57.615Z,32.25
2022-09-27T20:43:29.402Z,37.25
2022-09-27T20:46:04.485Z,39.00
2022-09-27T20:48:36.984Z,38.33
2022-09-27T20:51:09.744Z,40.67
2022-09-27T20:53:41.028Z,39.25
2022-09-27T20:56:30.695Z,39.25
2022-09-27T20:59:04.113Z,34.25
2022-09-27T21:01:35.594Z,34.25
2022-09-27T21:04:07.816Z,35.67
2022-09-27T21:06:38.434Z,40.00
2022-09-27T21:09:10.172Z,42.00
2022-09-27T21:11:40.793Z,36.33
2022-09-27T21:14:11.260Z,31.33
2022-09-27T21:16:41.868Z,37.25
2022-09-27T21:19:12.744Z,39.50
2022-09-27T21:21:42.927Z,33.00
2022-09-27T21:24:13.974Z,29.50
2022-09-27T21:26:44.289Z,35.75
2022-09-27T21:29:16.286Z,31.00
2022-09-27T21:31:46.832Z,35.75
2022-09-27T21:34:19.557Z,36.50
2022-09-27T21:36:49.982Z,36.00
2022-09-27T21:39:20.707Z,32.00
2022-09-27T21:41:50.951Z,38.33
2022-09-27T21:44:21.575Z,48.00
2022-09-27T21:46:53.538Z,32.75
2022-09-27T21:49:23.997Z,37.50
2022-09-27T21:51:54.801Z,38.00
2022-09-27T21:54:24.803Z,29.50
2022-09-27T21:56:54.966Z,34.33
2022-09-27T21:59:25.538Z,25.25
2022-09-27T22:01:55.776Z,33.50
2022-09-27T22:04:25.997Z,34.50
2022-09-27T22:06:56.698Z,31.00
2022-09-27T22:09:27.092Z,26.67
2022-09-27T22:11:58.090Z,31.25
2022-09-27T22:14:29.442Z,40.50
2022-09-27T22:16:59.465Z,38.25
2022-09-27T22:19:29.592Z,42.67
2022-09-27T22:22:00.008Z,34.00
2022-09-27T22:24:30.368Z,32.75
2022-09-27T22:27:00.573Z,37.25
2022-09-27T22:29:30.772Z,37.25
2022-09-27T22:32:00.855Z,32.00
2022-09-27T22:34:31.020Z,29.25
2022-09-27T22:37:02.236Z,35.00
2022-09-27T22:39:32.497Z,39.00
2022-09-27T22:42:02.621Z,38.25
2022-09-27T22:44:34.669Z,41.25
2022-09-27T22:47:04.799Z,42.00
2022-09-27T22:49:34.835Z,40.25
2022-09-27T22:52:05.019Z,42.00
2022-09-27T22:54:35.062Z,26.67
2022-09-27T22:57:05.540Z,30.00
2022-09-27T22:59:35.662Z,30.00
2022-09-27T23:02:06.231Z,23.50
2022-09-27T23:04:36.511Z,30.00
2022-09-27T23:07:06.678Z,33.25
2022-09-27T23:09:37.042Z,36.75
2022-09-27T23:12:08.672Z,35.00
2022-09-27T23:14:42.483Z,38.25
2022-09-27T23:17:12.923Z,38.75
2022-09-27T23:19:43.228Z,37.50
2022-09-27T23:22:13.544Z,34.25
2022-09-27T23:24:43.911Z,42.75
2022-09-27T23:27:32.524Z,34.75
2022-09-27T23:30:02.926Z,46.75
2022-09-27T23:32:33.333Z,40.75
2022-09-27T23:35:03.573Z,35.00
2022-09-27T23:37:33.774Z,41.25
2022-09-27T23:40:04.283Z,38.00
2022-09-27T23:42:35.299Z,29.25
2022-09-27T23:45:05.751Z,34.00
2022-09-27T23:47:36.096Z,36.50
2022-09-27T23:50:06.793Z,44.25
2022-09-27T23:55:07.298Z,38.33
2022-09-27T23:57:37.978Z,46.25
